Aberdeen, ID (83210)

11:18 PM MDT on April 24, 2017 (GMT -0600)
MITD32 | | Change Station
Active Advisory: Flood Warning

Elev 4473 ft 43.08 °N, 112.78 °W | Updated 1 hour ago

Mostly Cloudy
Mostly Cloudy
41.0 °F
Feels Like 35 °F
N
10.0
Wind Variable Wind from SSW
Gusts 14.0 mph

Today
High -- | Low -- °F
--% Chance of Precip.
Yesterday
High -- | Low -- °F
Precip. -- in
Pressure 29.71 in
Visibility 10.0 miles
Clouds Overcast 1800 ft
Windchill 35 °F
Dew Point 36.0 °F
Humidity 83%
Rainfall 0.31 in
Snow Depth Not available.
6:34 AM 8:24 PM
Waning Crescent, 2% visible
METAR KPIH 250453Z AUTO 22018G24KT 10SM OVC018 05/02 A2972 RMK AO2 PK WND 22028/0431 SLP060 T00500022
Pressure 29.71 in
Visibility 10.0 miles
Clouds Overcast 1800 ft
Windchill 35 °F
Dew Point 36.0 °F
Humidity 83%
Rainfall 0.31 in
Snow Depth Not available.
6:34 AM 8:24 PM
Waning Crescent, 2% visible
METAR KPIH 250453Z AUTO 22018G24KT 10SM OVC018 05/02 A2972 RMK AO2 PK WND 22028/0431 SLP060 T00500022

Get Your Daily Forecast Email!

Thanks for signing up!

Be on the lookout for a verification email in your inbox.

You'll start receiving severe weather alerts in your inbox..

×

10-Day Weather Forecast

Almanac

Astronomy

Apr. 24, 2017 Rise Set
Actual Time
Civil Twilight
Nautical Twilight
Astronomical Twilight
Moon
Length of Visible Light
Length of Day
Tomorrow will be .
, % of the Moon is Illuminated

Today's Extremes

State Highs State Lows

Community

WunderPhotos

WunderBlog® & News

Nearby

Air Quality

  Air Quality AQ Index Pollutant
Not available.

Snow Depth

Station Depth Elevation

Earthquake Activity

City Distance Mag. Time & Date
Minimum magnitude displayed is 2.5.

Coastal Water Temperatures

Place Temperature

Stations

Nearby Weather Stations

Station Location Temp. Windchill Dew Point Humidity Wind Precip. Elev Updated Type
                   

Watches & Warnings

Flood Warning
Issued: 11:21 AM MDT Apr. 24, 2017 – National Weather Service

... Forecast flooding increased from minor to moderate severity...
the Flood Warning continues for
the Portneuf River at Pocatello.
* At 10:45 am Monday the stage was 9.7 feet.
* Flood stage is 8.5 feet.
* Minor flooding is occurring and moderate flooding is forecast.
* Forecast... the river will continue rising to near 10.1 feet by
Thursday morning. Additional rises may be possible thereafter.
* Impact... at 10.0 feet... significant flooding of agricultural land
will occur from the Inkom and Blackrock area. Lowland flooding will
occur along sections of the river in Pocatello from portnuef gap to
the Cheyenne Avenue bridge and downstream of the Concrete channel
beginning at Sacajawea Park.



                       Fld observed forecast 6 am
location stg stg day time Tue Wed Thu

Portneuf River
Portneuf River at po 8.5 9.7 Mon 11 am 9.9 9.9 10.1




Lat... Lon 4298 11257 4276 11237 4263 11228 4265 11213
      4286 11225 4301 11253